Terminal Aerodrome Forecast
Issued by NWS

Home | Current Version | Previous Version | Text Only | Print | Product List | Glossary Off
Versions: 1 2 3 4 5 6 7 8 9 10 11 12 13 14 15 16 17 18 19 20 21 22 23 24 25 26 27 28 29 30 31 32 33 34 35 36 37 38
000 FTUS41 KBOX 311140 TAFHYA TAF KHYA 311140Z 3112/0112 32015G28KT 3/4SM -SN OVC012 FM311400 32022G35KT P6SM OVC025 FM311800 32024G39KT P6SM BKN035 FM312000 32023G38KT P6SM SCT200 FM010600 30018G29KT P6SM SKC=

USA.gov is the U.S. government's official web portal to all federal, state and local government web resources and services.